Time;durP1;ratioP1;P1;durP2;ratioP2;P2;SDS_P1;SDS_P2;PMS_P1;PMS_P2;Temp;Humidity;BMP_temperature;BMP_pressure;BME280_temperature;BME280_humidity;BME280_pressure;Samples;Min_cycle;Max_cycle;Signal;HPM_P1;HPM_P2
2023/05/08 00:02:12;;;;;;;6.70;6.40;;;8.20;67.30;;;;;;6222411;28;20227;-82
2023/05/08 00:05:15;;;;;;;7.67;6.93;;;8.20;67.40;;;;;;6203789;28;20223;-82
2023/05/08 00:08:18;;;;;;;6.90;6.60;;;8.10;67.70;;;;;;6208538;28;20630;-83
2023/05/08 00:11:21;;;;;;;7.20;6.90;;;8.10;67.60;;;;;;6224772;28;20231;-83
2023/05/08 00:14:26;;;;;;;7.20;6.90;;;8.00;67.90;;;;;;6237120;28;21819;-85
2023/05/08 00:17:29;;;;;;;6.87;6.47;;;8.00;67.90;;;;;;6221769;28;20244;-84
2023/05/08 00:20:33;;;;;;;7.20;6.70;;;8.00;68.00;;;;;;6229711;28;20258;-86
2023/05/08 00:23:37;;;;;;;7.53;7.10;;;8.00;68.10;;;;;;6240330;28;20717;-85
2023/05/08 00:26:43;;;;;;;7.63;7.23;;;8.00;68.10;;;;;;6224098;28;20235;-86
2023/05/08 00:29:48;;;;;;;7.73;7.30;;;7.80;68.20;;;;;;6227383;28;20328;-84
2023/05/08 00:32:51;;;;;;;8.20;7.80;;;7.80;68.30;;;;;;6230112;28;20250;-83
2023/05/08 00:35:59;;;;;;;8.20;7.70;;;7.80;68.50;;;;;;6232727;28;20632;-82
2023/05/08 00:39:02;;;;;;;8.07;7.60;;;7.80;68.60;;;;;;6237115;28;20239;-84
2023/05/08 00:42:05;;;;;;;8.43;7.93;;;7.60;69.00;;;;;;6222223;28;20239;-83
2023/05/08 00:45:11;;;;;;;8.70;8.20;;;7.60;69.20;;;;;;6232057;28;20254;-84
2023/05/08 00:48:15;;;;;;;8.23;7.63;;;7.60;69.30;;;;;;6225956;28;20300;-84
2023/05/08 00:51:18;;;;;;;7.93;7.53;;;7.60;69.30;;;;;;6268444;28;20868;-85
2023/05/08 00:54:22;;;;;;;8.50;7.93;;;7.50;69.10;;;;;;6244814;28;20607;-83
2023/05/08 00:57:26;;;;;;;8.57;8.17;;;7.50;69.40;;;;;;6253298;28;20331;-85
2023/05/08 01:00:32;;;;;;;8.10;7.60;;;7.50;69.40;;;;;;6254374;28;20328;-79
2023/05/08 01:03:37;;;;;;;8.67;8.17;;;7.50;69.20;;;;;;6241310;28;20235;-83
2023/05/08 01:06:40;;;;;;;7.73;7.40;;;7.40;69.30;;;;;;6232013;28;20235;-84
2023/05/08 01:09:43;;;;;;;8.17;7.63;;;7.40;69.30;;;;;;6231039;28;20372;-84
2023/05/08 01:13:05;;;;;;;7.73;7.33;;;7.40;69.30;;;;;;6237955;28;20345;-80
2023/05/08 01:16:14;;;;;;;9.10;8.60;;;7.30;69.40;;;;;;6245478;28;20236;-83
2023/05/08 01:19:48;;;;;;;9.03;8.30;;;7.20;69.60;;;;;;6266217;28;20234;-86
2023/05/08 01:23:11;;;;;;;8.03;7.63;;;7.20;69.80;;;;;;6251267;28;20235;-83
2023/05/08 01:26:47;;;;;;;7.70;7.20;;;7.20;69.70;;;;;;6237045;28;20246;-82
2023/05/08 01:30:26;;;;;;;8.90;8.40;;;7.20;69.90;;;;;;6241519;28;20250;-82
2023/05/08 01:33:36;;;;;;;8.47;7.97;;;7.20;69.80;;;;;;6235035;28;20735;-82
2023/05/08 01:36:48;;;;;;;8.87;8.33;;;7.10;69.80;;;;;;6241707;28;20284;-83
2023/05/08 01:39:57;;;;;;;8.30;7.90;;;7.00;70.00;;;;;;6236235;28;20238;-81
2023/05/08 01:43:10;;;;;;;9.23;8.47;;;7.00;70.00;;;;;;6231091;28;20755;-85
2023/05/08 01:46:18;;;;;;;8.77;8.37;;;7.00;69.90;;;;;;6243323;28;20223;-83
2023/05/08 01:49:26;;;;;;;8.30;7.70;;;7.00;69.70;;;;;;6225225;28;20239;-81
2023/05/08 01:52:34;;;;;;;8.97;8.47;;;7.00;69.70;;;;;;6249111;28;20278;-84
2023/05/08 01:55:39;;;;;;;8.53;8.00;;;7.00;69.80;;;;;;6241299;28;20828;-84
2023/05/08 01:58:43;;;;;;;8.87;8.30;;;7.00;69.70;;;;;;6240787;28;20246;-84
2023/05/08 02:01:51;;;;;;;8.80;8.30;;;7.00;70.10;;;;;;6224267;28;20238;-84
2023/05/08 02:04:57;;;;;;;8.50;8.10;;;6.90;70.20;;;;;;6240115;28;20239;-84
2023/05/08 02:08:01;;;;;;;8.03;7.53;;;6.90;70.30;;;;;;6231959;28;20749;-82
2023/05/08 02:11:06;;;;;;;8.97;8.47;;;6.80;70.20;;;;;;6213740;28;20244;-83
2023/05/08 02:14:09;;;;;;;9.47;8.67;;;6.80;70.20;;;;;;6203445;28;20598;-81
2023/05/08 02:17:15;;;;;;;8.83;8.23;;;6.80;70.30;;;;;;6218898;28;20246;-85
2023/05/08 02:20:21;;;;;;;9.00;8.50;;;6.80;70.10;;;;;;6233643;28;20317;-82
2023/05/08 02:23:27;;;;;;;8.70;8.10;;;6.80;70.00;;;;;;6236959;28;20841;-85
2023/05/08 02:26:32;;;;;;;8.57;8.07;;;6.70;70.10;;;;;;6234907;28;20309;-84
2023/05/08 02:29:37;;;;;;;9.50;8.90;;;6.60;70.30;;;;;;6233081;28;20247;-82
2023/05/08 02:32:43;;;;;;;8.00;7.47;;;6.60;70.20;;;;;;6287917;28;20254;-81
2023/05/08 02:35:50;;;;;;;8.97;8.27;;;6.60;70.30;;;;;;6256234;28;20218;-81
2023/05/08 02:38:56;;;;;;;8.20;7.70;;;6.60;70.30;;;;;;6269948;28;20306;-81
2023/05/08 02:41:59;;;;;;;8.60;8.00;;;6.60;70.20;;;;;;6236893;28;20249;-82
2023/05/08 02:45:03;;;;;;;8.30;7.80;;;6.50;70.30;;;;;;6213648;28;20633;-83
2023/05/08 02:48:12;;;;;;;8.83;8.13;;;6.50;70.20;;;;;;6201076;28;20243;-84
2023/05/08 02:51:22;;;;;;;9.53;8.93;;;6.40;70.30;;;;;;6217387;28;20330;-86
2023/05/08 02:54:36;;;;;;;9.50;8.90;;;6.40;70.50;;;;;;6199908;28;20247;-84
2023/05/08 02:57:46;;;;;;;9.40;8.80;;;6.30;70.50;;;;;;6228950;28;20254;-82
2023/05/08 03:01:05;;;;;;;8.87;8.37;;;6.30;70.50;;;;;;6215679;28;20366;-85
2023/05/08 03:04:10;;;;;;;8.93;8.43;;;6.30;70.50;;;;;;6199910;28;20236;-85
2023/05/08 03:07:16;;;;;;;9.63;9.03;;;6.30;70.40;;;;;;6213783;28;20231;-83
2023/05/08 03:10:21;;;;;;;9.23;8.70;;;6.40;70.30;;;;;;6209352;28;20239;-84
2023/05/08 03:13:25;;;;;;;9.43;8.83;;;6.30;70.40;;;;;;6220865;28;20794;-84
2023/05/08 03:16:32;;;;;;;9.60;8.90;;;6.20;70.50;;;;;;6252996;28;20227;-81
2023/05/08 03:19:38;;;;;;;10.20;9.40;;;6.20;70.60;;;;;;6276183;28;20227;-81
2023/05/08 03:22:45;;;;;;;9.53;8.73;;;6.10;70.60;;;;;;6248147;28;20295;-82
2023/05/08 03:25:48;;;;;;;9.00;8.50;;;6.10;70.70;;;;;;6265745;28;20268;-79
2023/05/08 03:28:53;;;;;;;9.80;9.00;;;6.10;70.80;;;;;;6242103;28;20764;-84
2023/05/08 03:31:58;;;;;;;9.60;9.00;;;6.10;70.80;;;;;;6221912;28;20239;-81
2023/05/08 03:35:02;;;;;;;9.30;8.70;;;6.00;70.90;;;;;;6223895;28;20235;-83
2023/05/08 03:38:08;;;;;;;10.27;9.27;;;6.00;70.90;;;;;;6230468;28;20238;-81
2023/05/08 03:41:12;;;;;;;9.00;8.47;;;6.00;70.90;;;;;;6223323;28;20318;-80
2023/05/08 03:44:16;;;;;;;10.00;9.23;;;6.00;71.00;;;;;;6205815;28;20242;-81
2023/05/08 03:47:20;;;;;;;9.30;8.70;;;6.10;70.90;;;;;;6233858;28;20238;-80
2023/05/08 03:50:24;;;;;;;9.97;9.27;;;6.00;71.10;;;;;;6227410;28;20235;-82
2023/05/08 03:53:29;;;;;;;9.53;8.83;;;6.10;71.10;;;;;;6228312;28;20273;-83
2023/05/08 03:56:33;;;;;;;9.97;9.27;;;6.00;71.00;;;;;;6227956;28;20268;-83
2023/05/08 03:59:44;;;;;;;8.93;8.43;;;6.00;71.10;;;;;;6220930;28;20235;-80
2023/05/08 04:02:56;;;;;;;9.70;9.10;;;6.10;71.10;;;;;;6229438;28;20247;-82
2023/05/08 04:06:15;;;;;;;9.73;8.73;;;6.10;71.10;;;;;;6240191;28;20235;-82
2023/05/08 04:09:24;;;;;;;10.27;9.27;;;6.10;71.10;;;;;;6231531;28;20246;-81
2023/05/08 04:12:36;;;;;;;9.90;9.10;;;6.00;71.20;;;;;;6230602;28;20218;-81
2023/05/08 04:15:46;;;;;;;9.07;8.57;;;6.10;71.20;;;;;;6228446;28;20750;-82
2023/05/08 04:18:50;;;;;;;9.77;9.17;;;6.10;71.10;;;;;;6219363;28;20235;-81
2023/05/08 04:21:57;;;;;;;10.10;9.20;;;6.10;71.20;;;;;;6224869;28;20337;-80
2023/05/08 04:25:06;;;;;;;10.23;9.23;;;6.20;71.20;;;;;;6224873;28;20230;-81
2023/05/08 04:28:11;;;;;;;9.47;8.67;;;6.20;71.00;;;;;;6227942;28;20235;-82
2023/05/08 04:31:15;;;;;;;9.80;8.83;;;6.20;70.90;;;;;;6227739;28;20934;-82
2023/05/08 04:34:19;;;;;;;9.90;9.13;;;6.20;70.70;;;;;;6232766;28;20733;-81
2023/05/08 04:37:25;;;;;;;9.77;9.07;;;6.30;70.50;;;;;;6230117;28;20330;-80
2023/05/08 04:40:29;;;;;;;10.23;9.53;;;6.30;70.70;;;;;;6233129;28;20231;-80
2023/05/08 04:43:34;;;;;;;10.30;9.60;;;6.30;70.70;;;;;;6237067;28;20235;-81
2023/05/08 04:46:37;;;;;;;9.77;9.13;;;6.30;70.50;;;;;;6232231;28;20659;-80
2023/05/08 04:49:40;;;;;;;9.63;9.00;;;6.40;70.40;;;;;;6231113;28;20235;-81
2023/05/08 04:52:43;;;;;;;9.07;8.57;;;6.50;70.30;;;;;;6231804;28;20322;-78
2023/05/08 04:55:49;;;;;;;10.23;9.13;;;6.60;69.80;;;;;;6236421;28;20758;-81
2023/05/08 04:58:52;;;;;;;9.23;8.63;;;6.70;69.60;;;;;;6228756;28;20254;-80
2023/05/08 05:01:56;;;;;;;10.50;9.60;;;6.70;69.00;;;;;;6234049;28;20246;-78
2023/05/08 05:05:00;;;;;;;9.27;8.57;;;6.80;69.00;;;;;;6221461;28;20239;-77
2023/05/08 05:08:04;;;;;;;9.40;8.50;;;7.00;68.70;;;;;;6237694;28;20249;-81
2023/05/08 05:11:08;;;;;;;9.13;8.50;;;7.20;68.20;;;;;;6225131;28;20273;-79
2023/05/08 05:14:11;;;;;;;9.93;8.90;;;7.30;68.30;;;;;;6251510;28;20231;-78
2023/05/08 05:17:14;;;;;;;8.50;8.00;;;7.50;67.40;;;;;;6257816;28;20716;-80
2023/05/08 05:20:17;;;;;;;8.23;7.73;;;7.80;66.50;;;;;;6237528;28;20855;-80
2023/05/08 05:23:21;;;;;;;8.23;7.77;;;8.00;66.40;;;;;;6245484;28;20234;-76
2023/05/08 05:26:25;;;;;;;8.40;7.90;;;8.10;65.60;;;;;;6273209;28;20275;-79
2023/05/08 05:29:29;;;;;;;7.83;7.33;;;8.30;64.90;;;;;;6280280;28;20245;-78
2023/05/08 05:32:32;;;;;;;8.07;7.47;;;8.60;64.70;;;;;;6276915;28;20226;-75
2023/05/08 05:35:35;;;;;;;8.13;7.63;;;8.80;64.00;;;;;;6256490;28;20231;-77
2023/05/08 05:38:38;;;;;;;7.60;7.10;;;9.00;63.20;;;;;;6266703;28;20215;-77
2023/05/08 05:41:43;;;;;;;7.40;6.90;;;9.30;62.40;;;;;;6269868;28;20219;-79
2023/05/08 05:44:46;;;;;;;7.40;6.90;;;9.40;61.90;;;;;;6260939;28;20246;-78
2023/05/08 05:47:51;;;;;;;7.73;7.23;;;9.50;61.40;;;;;;6266546;28;20215;-77
2023/05/08 05:50:55;;;;;;;7.47;6.87;;;9.80;61.40;;;;;;6259321;28;20278;-78
2023/05/08 05:53:58;;;;;;;7.20;6.73;;;9.90;60.60;;;;;;6230073;28;20235;-79
2023/05/08 05:57:02;;;;;;;6.90;6.40;;;10.10;60.20;;;;;;6240179;28;20245;-79
2023/05/08 06:00:07;;;;;;;6.30;5.90;;;10.40;60.00;;;;;;6236024;28;20906;-79
2023/05/08 06:03:10;;;;;;;6.07;5.77;;;10.60;59.00;;;;;;6238432;28;20752;-79
2023/05/08 06:06:13;;;;;;;6.43;5.93;;;10.40;59.00;;;;;;6231835;28;20321;-80
2023/05/08 06:09:16;;;;;;;6.43;6.07;;;10.50;58.80;;;;;;6213609;28;20238;-77
2023/05/08 06:12:21;;;;;;;6.60;6.20;;;10.70;58.90;;;;;;6211918;28;20248;-78
2023/05/08 06:15:25;;;;;;;6.40;5.97;;;10.80;58.60;;;;;;6212189;28;20314;-79
2023/05/08 06:18:28;;;;;;;5.90;5.70;;;11.10;57.80;;;;;;6212898;28;20856;-80
2023/05/08 06:21:33;;;;;;;5.87;5.57;;;11.50;57.20;;;;;;6218566;28;20663;-79
2023/05/08 06:24:36;;;;;;;5.63;5.33;;;11.70;56.70;;;;;;6223767;28;20240;-76
2023/05/08 06:27:40;;;;;;;5.70;5.40;;;11.90;55.70;;;;;;6266400;28;20229;-76
2023/05/08 06:30:43;;;;;;;7.90;5.43;;;12.00;55.20;;;;;;6262145;28;20476;-75
2023/05/08 06:33:46;;;;;;;8.53;5.50;;;12.20;55.00;;;;;;6303593;28;20231;-78
2023/05/08 06:36:49;;;;;;;5.60;5.30;;;12.20;54.30;;;;;;6266354;28;20229;-77
2023/05/08 06:39:52;;;;;;;5.97;5.53;;;12.20;54.80;;;;;;6257422;28;20237;-77
2023/05/08 06:43:15;;;;;;;5.20;5.00;;;12.40;54.00;;;;;;6268411;28;20226;-78
2023/05/08 06:46:20;;;;;;;5.20;5.00;;;12.30;54.30;;;;;;6245994;28;20228;-80
2023/05/08 06:49:23;;;;;;;5.37;4.83;;;12.50;54.30;;;;;;6230847;28;20451;-79
2023/05/08 06:52:26;;;;;;;5.67;5.37;;;12.50;53.30;;;;;;6213838;28;20838;-80
2023/05/08 06:55:29;;;;;;;5.13;4.93;;;12.50;54.10;;;;;;6211818;28;21268;-80
2023/05/08 06:58:34;;;;;;;5.43;5.23;;;12.50;53.90;;;;;;6212754;28;20239;-79
2023/05/08 07:01:37;;;;;;;4.63;4.30;;;12.70;53.60;;;;;;6212104;28;20720;-77
2023/05/08 07:04:40;;;;;;;5.33;4.83;;;12.90;53.10;;;;;;6234462;28;20234;-78
2023/05/08 07:07:43;;;;;;;4.93;4.70;;;13.00;51.90;;;;;;6239288;28;20237;-78
2023/05/08 07:10:46;;;;;;;5.00;4.80;;;13.00;52.20;;;;;;6235506;28;20230;-78
2023/05/08 07:13:52;;;;;;;4.77;4.57;;;12.80;53.40;;;;;;6232274;28;20652;-79
2023/05/08 07:16:55;;;;;;;5.13;4.90;;;12.90;54.10;;;;;;6224580;28;20249;-81
2023/05/08 07:19:58;;;;;;;6.80;5.23;;;12.90;52.50;;;;;;6227098;28;20238;-79
2023/05/08 07:23:02;;;;;;;5.07;4.87;;;12.80;52.70;;;;;;6227761;28;20334;-78
2023/05/08 07:26:07;;;;;;;5.23;4.83;;;12.90;53.00;;;;;;6229039;28;20238;-77
2023/05/08 07:29:11;;;;;;;5.07;4.77;;;12.90;52.40;;;;;;6213009;28;20359;-80
2023/05/08 07:32:15;;;;;;;4.83;4.63;;;13.00;52.50;;;;;;6208583;28;20240;-78
2023/05/08 07:35:18;;;;;;;4.40;4.20;;;13.00;51.80;;;;;;6214831;28;20234;-78
2023/05/08 07:38:21;;;;;;;4.57;4.27;;;13.00;51.70;;;;;;6204513;28;20319;-80
2023/05/08 07:41:25;;;;;;;4.70;4.50;;;13.00;52.20;;;;;;6226040;28;20230;-79
2023/05/08 07:44:32;;;;;;;4.33;3.97;;;13.00;51.40;;;;;;6220155;28;20231;-80
2023/05/08 07:47:49;;;;;;;4.80;4.57;;;13.00;51.00;;;;;;6232273;28;20372;-78
2023/05/08 07:50:52;;;;;;;4.40;4.30;;;13.00;50.60;;;;;;6231029;28;20242;-81
2023/05/08 07:53:55;;;;;;;4.77;4.37;;;12.90;51.20;;;;;;6234803;28;20253;-78
2023/05/08 07:56:58;;;;;;;4.40;4.07;;;12.80;50.80;;;;;;6235572;28;20242;-80
2023/05/08 08:00:04;;;;;;;4.33;4.10;;;12.90;50.80;;;;;;6232221;28;20230;-81
2023/05/08 08:03:07;;;;;;;4.60;4.13;;;12.90;51.20;;;;;;6231077;28;20238;-79
2023/05/08 08:06:10;;;;;;;4.90;4.67;;;13.00;51.50;;;;;;6248387;28;20316;-78
2023/05/08 08:09:13;;;;;;;4.30;4.20;;;12.90;50.20;;;;;;6253046;28;20242;-78
2023/05/08 08:12:16;;;;;;;4.43;4.17;;;13.00;50.70;;;;;;6232452;28;20240;-77
2023/05/08 08:15:21;;;;;;;4.47;4.27;;;12.90;50.10;;;;;;6230270;28;20231;-81
2023/05/08 08:18:24;;;;;;;4.50;4.30;;;13.00;51.20;;;;;;6233607;28;20284;-81
2023/05/08 08:21:27;;;;;;;4.40;4.20;;;13.00;50.20;;;;;;6226957;28;20239;-81
2023/05/08 08:24:30;;;;;;;4.33;4.13;;;13.00;50.60;;;;;;6232195;28;20242;-80
2023/05/08 08:27:33;;;;;;;5.17;4.50;;;13.10;51.00;;;;;;6236019;28;20325;-82
2023/05/08 08:30:38;;;;;;;4.57;4.30;;;13.30;51.10;;;;;;6239183;28;20868;-79
2023/05/08 08:33:41;;;;;;;4.80;4.40;;;13.50;50.00;;;;;;6241236;28;20321;-78
2023/05/08 08:36:45;;;;;;;4.33;4.00;;;13.60;48.90;;;;;;6231511;28;20222;-81
2023/05/08 08:39:48;;;;;;;4.33;3.90;;;13.80;48.50;;;;;;6243935;28;20298;-80
2023/05/08 08:42:51;;;;;;;4.27;4.07;;;13.90;47.40;;;;;;6242400;28;20237;-80
2023/05/08 08:45:56;;;;;;;4.00;3.80;;;13.90;48.80;;;;;;6238035;28;20234;-78
2023/05/08 08:49:02;;;;;;;4.27;4.00;;;14.00;47.10;;;;;;6235658;28;20242;-80
2023/05/08 08:52:11;;;;;;;4.53;4.23;;;14.00;47.80;;;;;;6237486;28;20246;-80
2023/05/08 08:55:16;;;;;;;4.03;3.93;;;14.10;47.00;;;;;;6236234;28;20234;-80
2023/05/08 08:58:25;;;;;;;3.87;3.67;;;14.10;47.70;;;;;;6214083;28;20241;-80
2023/05/08 09:01:31;;;;;;;7.20;4.10;;;14.20;47.10;;;;;;6236402;28;20246;-80
2023/05/08 09:04:34;;;;;;;4.93;3.50;;;14.30;47.10;;;;;;6228751;28;20250;-80
2023/05/08 09:07:40;;;;;;;4.23;4.03;;;14.50;47.90;;;;;;6234058;28;20603;-79
2023/05/08 09:10:43;;;;;;;4.37;4.27;;;14.70;47.30;;;;;;6239394;28;20234;-78
2023/05/08 09:13:46;;;;;;;4.40;4.00;;;14.70;46.60;;;;;;6234165;28;20956;-79
2023/05/08 09:16:51;;;;;;;3.97;3.70;;;14.70;46.30;;;;;;6232704;28;20249;-80
2023/05/08 09:19:55;;;;;;;3.80;3.50;;;14.70;45.90;;;;;;6232841;28;20247;-80
2023/05/08 09:23:02;;;;;;;3.60;3.50;;;14.70;46.30;;;;;;6236622;28;20239;-78
2023/05/08 09:26:05;;;;;;;4.03;3.80;;;14.80;46.10;;;;;;6235890;28;20242;-79
2023/05/08 09:29:10;;;;;;;4.17;3.93;;;14.90;46.40;;;;;;6241671;28;20326;-80
2023/05/08 09:32:18;;;;;;;4.10;3.80;;;15.00;45.60;;;;;;6234044;28;20241;-79
2023/05/08 09:35:36;;;;;;;4.30;4.00;;;15.00;45.90;;;;;;6237005;28;20231;-80
2023/05/08 09:38:42;;;;;;;4.67;4.03;;;14.90;44.90;;;;;;6243771;28;20293;-80
2023/05/08 09:41:57;;;;;;;4.17;3.97;;;15.00;44.80;;;;;;6240937;28;20235;-80
2023/05/08 09:45:01;;;;;;;4.47;3.67;;;15.10;45.00;;;;;;6235824;28;20280;-80
2023/05/08 09:48:06;;;;;;;4.10;3.80;;;15.20;45.50;;;;;;6232671;28;20239;-80
2023/05/08 09:51:09;;;;;;;3.50;3.40;;;15.40;45.80;;;;;;6235775;28;20273;-81
2023/05/08 09:54:18;;;;;;;4.47;3.60;;;15.30;44.80;;;;;;6236909;28;20738;-79
2023/05/08 09:57:21;;;;;;;3.70;3.50;;;15.30;45.10;;;;;;6233261;28;20245;-79
2023/05/08 10:00:25;;;;;;;4.20;3.90;;;15.40;44.10;;;;;;6239585;28;20246;-79
2023/05/08 10:03:47;;;;;;;3.77;3.47;;;15.40;45.50;;;;;;6240944;28;20238;-78
2023/05/08 10:06:58;;;;;;;3.70;3.50;;;15.50;44.70;;;;;;6237671;28;20609;-78
2023/05/08 10:10:03;;;;;;;3.80;3.50;;;15.60;45.00;;;;;;6239525;28;20686;-78
2023/05/08 10:13:06;;;;;;;3.20;2.97;;;15.80;43.90;;;;;;6219712;28;20242;-80
2023/05/08 10:16:14;;;;;;;4.70;3.00;;;15.80;43.40;;;;;;6219848;28;20243;-80
2023/05/08 10:19:21;;;;;;;2.97;2.60;;;15.80;43.20;;;;;;6232797;28;20237;-80
2023/05/08 10:22:26;;;;;;;3.40;3.20;;;15.90;44.60;;;;;;6232095;28;20235;-78
2023/05/08 10:25:33;;;;;;;3.77;3.47;;;16.00;43.20;;;;;;6237346;28;20242;-80
2023/05/08 10:28:43;;;;;;;3.17;3.00;;;16.20;43.70;;;;;;6240149;28;20239;-79
2023/05/08 10:31:49;;;;;;;3.80;2.97;;;16.40;42.70;;;;;;6239090;28;20374;-81
2023/05/08 10:34:58;;;;;;;3.47;3.20;;;16.50;43.60;;;;;;6235341;28;20247;-80
2023/05/08 10:38:02;;;;;;;3.90;3.07;;;16.50;42.60;;;;;;6237838;28;20246;-79
2023/05/08 10:41:06;;;;;;;3.30;3.00;;;16.50;41.90;;;;;;6237708;28;20242;-78
2023/05/08 10:44:09;;;;;;;3.57;3.30;;;16.50;41.80;;;;;;6239644;28;20238;-80
2023/05/08 10:47:22;;;;;;;3.47;3.17;;;16.50;42.00;;;;;;6226645;28;20246;-78
2023/05/08 10:50:45;;;;;;;3.53;3.43;;;16.60;42.50;;;;;;6238726;28;20242;-81
2023/05/08 10:53:54;;;;;;;3.40;3.20;;;16.60;43.40;;;;;;6239968;28;20234;-78
2023/05/08 10:57:09;;;;;;;3.40;3.13;;;16.60;42.20;;;;;;6217291;28;20235;-77
2023/05/08 11:00:13;;;;;;;3.63;3.43;;;16.70;42.10;;;;;;6208159;28;20242;-79
2023/05/08 11:03:17;;;;;;;3.20;3.10;;;16.80;41.90;;;;;;6213194;28;20239;-79
2023/05/08 11:06:47;;;;;;;5.47;3.27;;;16.90;42.40;;;;;;6214559;28;20231;-79
2023/05/08 11:09:51;;;;;;;2.93;2.90;;;16.80;42.10;;;;;;6230532;28;20743;-79
2023/05/08 11:12:54;;;;;;;4.07;3.73;;;17.00;42.20;;;;;;6239623;28;20748;-79
2023/05/08 11:15:57;;;;;;;4.80;3.50;;;17.10;41.70;;;;;;6226290;28;20277;-78
2023/05/08 11:19:16;;;;;;;3.30;3.20;;;17.20;42.10;;;;;;6232031;28;20296;-80
2023/05/08 11:22:27;;;;;;;3.27;3.07;;;17.20;40.70;;;;;;6229098;28;20633;-80
2023/05/08 11:25:42;;;;;;;3.23;3.13;;;17.10;41.50;;;;;;6229709;28;20691;-82
2023/05/08 11:28:57;;;;;;;3.70;3.47;;;17.20;41.00;;;;;;6216977;28;20231;-78
2023/05/08 11:32:00;;;;;;;3.43;3.07;;;17.20;42.30;;;;;;6211467;28;20251;-79
2023/05/08 11:35:03;;;;;;;3.00;2.90;;;17.20;40.70;;;;;;6206979;28;20239;-79
2023/05/08 11:38:25;;;;;;;3.00;2.90;;;17.30;41.10;;;;;;6223451;28;20245;-78
2023/05/08 11:41:28;;;;;;;2.97;2.60;;;17.60;41.00;;;;;;6237042;28;20735;-79
2023/05/08 11:44:32;;;;;;;5.67;3.33;;;17.70;40.10;;;;;;6232256;28;20226;-80
2023/05/08 11:47:38;;;;;;;3.77;3.47;;;17.80;40.60;;;;;;6223852;28;20239;-78
2023/05/08 11:50:41;;;;;;;4.47;3.10;;;17.80;40.70;;;;;;6237987;28;20242;-78
2023/05/08 11:53:46;;;;;;;3.00;2.90;;;18.00;40.10;;;;;;6236338;28;20238;-79
2023/05/08 11:56:51;;;;;;;4.00;3.20;;;18.00;40.40;;;;;;6223519;28;20737;-79
2023/05/08 11:59:54;;;;;;;3.57;2.90;;;18.00;40.20;;;;;;6223465;28;20223;-78
2023/05/08 12:02:57;;;;;;;2.90;2.80;;;18.00;40.50;;;;;;6234432;28;20251;-78
2023/05/08 12:06:00;;;;;;;2.73;2.63;;;18.00;39.80;;;;;;6234116;28;20231;-80
2023/05/08 12:09:11;;;;;;;2.90;2.70;;;18.20;38.90;;;;;;6231787;28;20235;-80
2023/05/08 12:12:14;;;;;;;2.83;2.70;;;18.20;38.70;;;;;;6236236;28;20268;-80
2023/05/08 12:15:17;;;;;;;3.90;2.70;;;18.20;38.70;;;;;;6227677;28;20247;-79
2023/05/08 12:18:21;;;;;;;2.60;2.47;;;18.10;39.30;;;;;;6230153;28;20243;-79
2023/05/08 12:21:26;;;;;;;3.20;2.90;;;18.10;39.60;;;;;;6224193;28;20757;-80
2023/05/08 12:24:30;;;;;;;2.93;2.80;;;18.20;39.50;;;;;;6237897;28;20261;-79
2023/05/08 12:27:34;;;;;;;4.37;2.97;;;18.30;39.10;;;;;;6228690;28;20234;-79
2023/05/08 12:30:37;;;;;;;2.77;2.67;;;18.30;39.10;;;;;;6235151;28;20735;-81
2023/05/08 12:33:41;;;;;;;2.77;2.67;;;18.30;39.10;;;;;;6227762;28;20246;-80
2023/05/08 12:36:44;;;;;;;3.00;2.90;;;18.40;39.30;;;;;;6229131;28;20643;-79
2023/05/08 12:39:48;;;;;;;3.23;2.80;;;18.50;39.40;;;;;;6231851;28;20245;-81
2023/05/08 12:42:52;;;;;;;2.80;2.70;;;18.40;39.60;;;;;;6231739;28;20240;-80
2023/05/08 12:45:55;;;;;;;2.73;2.73;;;18.50;39.00;;;;;;6238670;28;20624;-77
2023/05/08 12:49:03;;;;;;;4.20;3.20;;;18.50;38.90;;;;;;6230560;28;20238;-78
2023/05/08 12:52:07;;;;;;;3.60;2.57;;;18.50;38.50;;;;;;6234189;28;20314;-79
2023/05/08 12:55:25;;;;;;;2.90;2.80;;;18.50;38.90;;;;;;6233511;28;20272;-81
2023/05/08 12:58:30;;;;;;;3.07;2.97;;;18.30;38.70;;;;;;6232367;28;20234;-77
2023/05/08 13:01:33;;;;;;;2.90;2.63;;;18.40;39.20;;;;;;6233604;28;20266;-77
2023/05/08 13:04:37;;;;;;;5.90;3.10;;;18.50;38.30;;;;;;6233706;28;20288;-77
2023/05/08 13:07:41;;;;;;;3.00;2.80;;;18.50;38.50;;;;;;6227400;28;20235;-79
2023/05/08 13:10:50;;;;;;;3.10;2.87;;;18.50;38.80;;;;;;6222562;28;20241;-79
2023/05/08 13:13:53;;;;;;;6.93;2.80;;;18.60;39.10;;;;;;6229627;28;20230;-80
2023/05/08 13:16:56;;;;;;;4.40;2.93;;;18.60;38.60;;;;;;6236989;28;20731;-80
2023/05/08 13:19:59;;;;;;;3.63;3.20;;;18.70;38.00;;;;;;6236251;28;20240;-79
2023/05/08 13:23:02;;;;;;;3.17;2.70;;;18.70;38.20;;;;;;6238836;28;20279;-77
2023/05/08 13:26:07;;;;;;;3.00;2.90;;;18.80;38.70;;;;;;6239139;28;20314;-77
2023/05/08 13:29:10;;;;;;;3.07;2.93;;;18.80;39.30;;;;;;6234880;28;20242;-79
2023/05/08 13:32:13;;;;;;;2.60;2.50;;;18.90;37.60;;;;;;6240266;28;20275;-80
2023/05/08 13:35:17;;;;;;;2.57;2.57;;;18.90;37.20;;;;;;6238021;28;20845;-77
2023/05/08 13:38:20;;;;;;;2.50;2.40;;;18.70;37.90;;;;;;6227658;28;20234;-79
2023/05/08 13:41:25;;;;;;;3.23;2.57;;;18.90;38.20;;;;;;6240447;28;20580;-80
2023/05/08 13:44:29;;;;;;;4.10;3.00;;;19.00;38.20;;;;;;6237455;28;20222;-79
2023/05/08 13:47:32;;;;;;;6.37;2.97;;;19.10;37.90;;;;;;6238936;28;20235;-80
2023/05/08 13:50:36;;;;;;;4.30;3.00;;;19.00;37.90;;;;;;6240214;28;20238;-79
2023/05/08 13:53:39;;;;;;;2.97;2.83;;;18.80;37.80;;;;;;6235936;28;20237;-78
2023/05/08 13:56:43;;;;;;;3.73;2.70;;;18.80;38.00;;;;;;6255457;28;20319;-80
2023/05/08 13:59:47;;;;;;;4.93;4.50;;;18.90;37.40;;;;;;6238331;28;20310;-80
2023/05/08 14:02:50;;;;;;;2.90;2.80;;;18.90;37.50;;;;;;6236553;28;21035;-78
2023/05/08 14:05:55;;;;;;;2.83;2.63;;;19.00;37.40;;;;;;6227975;28;20238;-79
2023/05/08 14:08:58;;;;;;;3.07;2.70;;;19.10;36.60;;;;;;6240330;28;20233;-80
2023/05/08 14:12:02;;;;;;;2.80;2.50;;;19.10;37.60;;;;;;6212399;28;20287;-79
2023/05/08 14:15:07;;;;;;;4.63;2.60;;;19.10;37.00;;;;;;6231569;28;20590;-79
2023/05/08 14:18:10;;;;;;;3.57;2.70;;;19.10;37.70;;;;;;6232968;28;20230;-80
2023/05/08 14:21:14;;;;;;;2.90;2.67;;;19.10;37.60;;;;;;6233908;28;20245;-80
2023/05/08 14:24:17;;;;;;;3.13;2.90;;;19.20;37.20;;;;;;6230639;28;20245;-79
2023/05/08 14:27:22;;;;;;;5.13;2.67;;;19.10;36.60;;;;;;6233852;28;20246;-79
2023/05/08 14:30:25;;;;;;;5.03;2.90;;;19.00;36.90;;;;;;6235528;28;20237;-81
2023/05/08 14:33:28;;;;;;;4.40;2.83;;;19.10;36.90;;;;;;6230989;28;20227;-79
2023/05/08 14:36:31;;;;;;;2.87;2.70;;;19.20;37.30;;;;;;6226303;28;20238;-79
2023/05/08 14:39:34;;;;;;;4.73;2.90;;;19.30;37.30;;;;;;6232032;28;20235;-80
2023/05/08 14:42:41;;;;;;;2.97;2.87;;;19.40;37.20;;;;;;6231033;28;20754;-80
2023/05/08 14:45:44;;;;;;;3.03;2.83;;;19.30;37.00;;;;;;6227006;28;22170;-80
2023/05/08 14:48:47;;;;;;;3.80;3.20;;;19.30;37.20;;;;;;6237182;28;20254;-79
2023/05/08 14:51:50;;;;;;;3.57;3.07;;;19.20;36.60;;;;;;6229067;28;20266;-81
2023/05/08 14:54:53;;;;;;;3.47;3.23;;;19.10;36.10;;;;;;6231749;28;20269;-79
2023/05/08 14:57:58;;;;;;;3.13;2.87;;;19.20;36.60;;;;;;6223680;28;20288;-79
2023/05/08 15:01:01;;;;;;;3.07;2.87;;;19.20;36.50;;;;;;6229287;28;20639;-86
2023/05/08 15:04:04;;;;;;;3.43;3.13;;;19.20;36.80;;;;;;6228804;28;20347;-85
2023/05/08 15:07:08;;;;;;;3.23;3.10;;;19.40;37.40;;;;;;6257959;28;20324;-84
2023/05/08 15:10:11;;;;;;;3.50;3.00;;;19.30;37.20;;;;;;6231917;28;20239;-83
2023/05/08 15:13:15;;;;;;;2.70;2.70;;;19.30;36.60;;;;;;6232329;28;20318;-84
2023/05/08 15:16:19;;;;;;;3.30;3.10;;;19.30;36.60;;;;;;6243072;28;20241;-84
2023/05/08 15:19:22;;;;;;;3.83;3.53;;;19.30;37.20;;;;;;6237830;28;20300;-84
2023/05/08 15:22:25;;;;;;;4.03;2.80;;;19.20;37.20;;;;;;6234728;28;20300;-84
2023/05/08 15:25:30;;;;;;;3.53;3.30;;;19.40;37.50;;;;;;6241555;28;20227;-83
2023/05/08 15:28:34;;;;;;;3.93;3.53;;;19.70;37.30;;;;;;6240761;28;20235;-84
2023/05/08 15:31:37;;;;;;;6.30;3.10;;;20.00;36.80;;;;;;6232760;28;20239;-82
2023/05/08 15:34:40;;;;;;;3.77;3.47;;;19.70;36.70;;;;;;6247141;28;20227;-81
2023/05/08 15:37:43;;;;;;;2.90;2.80;;;19.50;36.90;;;;;;6246463;28;20260;-82
2023/05/08 15:40:46;;;;;;;3.73;3.43;;;19.40;36.70;;;;;;6244966;28;20258;-86
2023/05/08 15:43:51;;;;;;;3.07;2.97;;;19.40;37.20;;;;;;6240166;28;20231;-85
2023/05/08 15:46:54;;;;;;;2.83;2.80;;;19.50;37.70;;;;;;6240507;28;20242;-82
2023/05/08 15:50:00;;;;;;;3.27;2.87;;;19.30;38.50;;;;;;6234875;28;20242;-84
2023/05/08 15:53:03;;;;;;;3.50;3.20;;;19.20;38.00;;;;;;6233534;28;20230;-85
2023/05/08 15:56:07;;;;;;;3.20;3.10;;;19.00;38.20;;;;;;6227991;28;20244;-85
2023/05/08 15:59:11;;;;;;;2.93;2.90;;;18.90;38.10;;;;;;6236700;28;20345;-85
2023/05/08 16:02:15;;;;;;;3.13;3.03;;;19.00;38.00;;;;;;6231002;28;20258;-84
2023/05/08 16:05:18;;;;;;;3.67;3.10;;;19.00;38.10;;;;;;6236647;28;20708;-84
2023/05/08 16:08:21;;;;;;;3.43;3.13;;;19.10;37.80;;;;;;6232310;28;20726;-86
2023/05/08 16:11:24;;;;;;;3.10;2.90;;;19.10;38.10;;;;;;6216818;28;20235;-84